sensor_id;sensor_type;location;lat;lon;timestamp;P1;durP1;ratioP1;P2;durP2;ratioP2
32094;SDS011;18608;53.688;10.748;2022-08-18T00:00:26;19.00;;;16.33;;
32094;SDS011;18608;53.688;10.748;2022-08-18T00:02:52;17.53;;;14.87;;
32094;SDS011;18608;53.688;10.748;2022-08-18T00:05:19;17.10;;;13.70;;
32094;SDS011;18608;53.688;10.748;2022-08-18T00:07:45;20.13;;;14.80;;
32094;SDS011;18608;53.688;10.748;2022-08-18T00:10:11;20.80;;;15.47;;
32094;SDS011;18608;53.688;10.748;2022-08-18T00:12:38;22.63;;;15.67;;
32094;SDS011;18608;53.688;10.748;2022-08-18T00:15:06;18.93;;;15.50;;
32094;SDS011;18608;53.688;10.748;2022-08-18T00:17:35;18.47;;;15.40;;
32094;SDS011;18608;53.688;10.748;2022-08-18T00:20:02;19.47;;;14.20;;
32094;SDS011;18608;53.688;10.748;2022-08-18T00:22:29;18.80;;;13.73;;
32094;SDS011;18608;53.688;10.748;2022-08-18T00:24:56;17.30;;;12.17;;
32094;SDS011;18608;53.688;10.748;2022-08-18T00:27:26;21.73;;;14.70;;
32094;SDS011;18608;53.688;10.748;2022-08-18T00:29:54;19.07;;;13.60;;
32094;SDS011;18608;53.688;10.748;2022-08-18T00:32:23;16.60;;;14.00;;
32094;SDS011;18608;53.688;10.748;2022-08-18T00:34:51;19.93;;;13.20;;
32094;SDS011;18608;53.688;10.748;2022-08-18T00:37:17;15.60;;;12.60;;
32094;SDS011;18608;53.688;10.748;2022-08-18T00:39:43;18.60;;;12.97;;
32094;SDS011;18608;53.688;10.748;2022-08-18T00:42:17;14.60;;;12.73;;
32094;SDS011;18608;53.688;10.748;2022-08-18T00:44:45;13.67;;;10.83;;
32094;SDS011;18608;53.688;10.748;2022-08-18T00:47:11;13.70;;;12.03;;
32094;SDS011;18608;53.688;10.748;2022-08-18T00:49:37;14.10;;;11.57;;
32094;SDS011;18608;53.688;10.748;2022-08-18T00:52:05;15.43;;;10.10;;
32094;SDS011;18608;53.688;10.748;2022-08-18T00:54:31;11.90;;;10.20;;
32094;SDS011;18608;53.688;10.748;2022-08-18T00:56:59;11.90;;;9.17;;
32094;SDS011;18608;53.688;10.748;2022-08-18T01:02:02;9.67;;;8.63;;
32094;SDS011;18608;53.688;10.748;2022-08-18T01:07:07;10.80;;;8.47;;
32094;SDS011;18608;53.688;10.748;2022-08-18T01:09:36;11.70;;;8.83;;
32094;SDS011;18608;53.688;10.748;2022-08-18T01:12:02;12.30;;;8.57;;
32094;SDS011;18608;53.688;10.748;2022-08-18T01:14:28;11.03;;;8.67;;
32094;SDS011;18608;53.688;10.748;2022-08-18T01:16:54;12.20;;;8.80;;
32094;SDS011;18608;53.688;10.748;2022-08-18T01:19:39;9.70;;;7.47;;
32094;SDS011;18608;53.688;10.748;2022-08-18T01:22:28;9.23;;;8.07;;
32094;SDS011;18608;53.688;10.748;2022-08-18T01:25:11;14.00;;;6.73;;
32094;SDS011;18608;53.688;10.748;2022-08-18T01:27:56;9.00;;;7.07;;
32094;SDS011;18608;53.688;10.748;2022-08-18T01:30:21;9.30;;;7.07;;
32094;SDS011;18608;53.688;10.748;2022-08-18T01:32:49;7.03;;;6.27;;
32094;SDS011;18608;53.688;10.748;2022-08-18T01:35:16;8.13;;;7.37;;
32094;SDS011;18608;53.688;10.748;2022-08-18T01:37:44;9.67;;;6.50;;
32094;SDS011;18608;53.688;10.748;2022-08-18T01:40:10;13.70;;;7.73;;
32094;SDS011;18608;53.688;10.748;2022-08-18T01:42:37;9.90;;;6.37;;
32094;SDS011;18608;53.688;10.748;2022-08-18T01:45:04;13.80;;;6.43;;
32094;SDS011;18608;53.688;10.748;2022-08-18T01:47:32;11.23;;;8.33;;
32094;SDS011;18608;53.688;10.748;2022-08-18T01:50:00;8.47;;;7.60;;
32094;SDS011;18608;53.688;10.748;2022-08-18T01:52:26;13.43;;;9.23;;
32094;SDS011;18608;53.688;10.748;2022-08-18T01:54:53;11.17;;;9.07;;
32094;SDS011;18608;53.688;10.748;2022-08-18T01:57:22;11.40;;;8.40;;
32094;SDS011;18608;53.688;10.748;2022-08-18T01:59:48;14.37;;;8.50;;
32094;SDS011;18608;53.688;10.748;2022-08-18T02:02:15;13.17;;;6.97;;
32094;SDS011;18608;53.688;10.748;2022-08-18T02:04:46;15.13;;;7.83;;
32094;SDS011;18608;53.688;10.748;2022-08-18T02:07:13;11.83;;;9.13;;
32094;SDS011;18608;53.688;10.748;2022-08-18T02:09:39;15.73;;;10.10;;
32094;SDS011;18608;53.688;10.748;2022-08-18T02:12:07;15.13;;;11.00;;
32094;SDS011;18608;53.688;10.748;2022-08-18T02:14:33;17.60;;;10.90;;
32094;SDS011;18608;53.688;10.748;2022-08-18T02:17:00;15.23;;;10.13;;
32094;SDS011;18608;53.688;10.748;2022-08-18T02:19:27;15.03;;;9.77;;
32094;SDS011;18608;53.688;10.748;2022-08-18T02:21:52;17.40;;;10.83;;
32094;SDS011;18608;53.688;10.748;2022-08-18T02:24:18;20.83;;;11.70;;
32094;SDS011;18608;53.688;10.748;2022-08-18T02:26:44;17.30;;;11.53;;
32094;SDS011;18608;53.688;10.748;2022-08-18T02:29:10;16.37;;;11.43;;
32094;SDS011;18608;53.688;10.748;2022-08-18T02:31:36;15.77;;;11.50;;
32094;SDS011;18608;53.688;10.748;2022-08-18T02:34:02;21.87;;;11.63;;
32094;SDS011;18608;53.688;10.748;2022-08-18T02:36:28;14.73;;;11.93;;
32094;SDS011;18608;53.688;10.748;2022-08-18T02:38:54;19.73;;;13.03;;
32094;SDS011;18608;53.688;10.748;2022-08-18T02:41:20;26.63;;;12.50;;
32094;SDS011;18608;53.688;10.748;2022-08-18T02:43:47;18.07;;;12.57;;
32094;SDS011;18608;53.688;10.748;2022-08-18T02:46:13;24.63;;;14.10;;
32094;SDS011;18608;53.688;10.748;2022-08-18T02:48:39;20.07;;;13.13;;
32094;SDS011;18608;53.688;10.748;2022-08-18T02:51:06;18.77;;;14.53;;
32094;SDS011;18608;53.688;10.748;2022-08-18T02:53:36;21.10;;;13.23;;
32094;SDS011;18608;53.688;10.748;2022-08-18T02:56:14;19.17;;;14.03;;
32094;SDS011;18608;53.688;10.748;2022-08-18T02:58:50;23.03;;;14.00;;
32094;SDS011;18608;53.688;10.748;2022-08-18T03:01:18;21.90;;;13.57;;
32094;SDS011;18608;53.688;10.748;2022-08-18T03:03:45;32.57;;;14.67;;
32094;SDS011;18608;53.688;10.748;2022-08-18T03:06:12;29.83;;;14.80;;
32094;SDS011;18608;53.688;10.748;2022-08-18T03:08:38;18.13;;;13.40;;
32094;SDS011;18608;53.688;10.748;2022-08-18T03:11:04;19.00;;;14.03;;
32094;SDS011;18608;53.688;10.748;2022-08-18T03:13:30;18.57;;;13.87;;
32094;SDS011;18608;53.688;10.748;2022-08-18T03:15:56;27.37;;;15.10;;
32094;SDS011;18608;53.688;10.748;2022-08-18T03:18:22;23.13;;;13.43;;
32094;SDS011;18608;53.688;10.748;2022-08-18T03:20:48;20.87;;;13.63;;
32094;SDS011;18608;53.688;10.748;2022-08-18T03:23:14;16.60;;;14.80;;
32094;SDS011;18608;53.688;10.748;2022-08-18T03:25:47;17.47;;;14.23;;
32094;SDS011;18608;53.688;10.748;2022-08-18T03:28:14;16.90;;;13.47;;
32094;SDS011;18608;53.688;10.748;2022-08-18T03:30:40;18.20;;;13.27;;
32094;SDS011;18608;53.688;10.748;2022-08-18T03:33:07;26.30;;;14.00;;
32094;SDS011;18608;53.688;10.748;2022-08-18T03:35:34;17.17;;;12.27;;
32094;SDS011;18608;53.688;10.748;2022-08-18T03:38:00;17.53;;;12.70;;
32094;SDS011;18608;53.688;10.748;2022-08-18T03:40:26;14.83;;;13.33;;
32094;SDS011;18608;53.688;10.748;2022-08-18T03:42:53;15.83;;;9.70;;
32094;SDS011;18608;53.688;10.748;2022-08-18T03:45:18;13.63;;;12.20;;
32094;SDS011;18608;53.688;10.748;2022-08-18T03:47:44;13.10;;;11.70;;
32094;SDS011;18608;53.688;10.748;2022-08-18T03:50:11;17.20;;;13.73;;
32094;SDS011;18608;53.688;10.748;2022-08-18T03:52:37;13.13;;;10.67;;
32094;SDS011;18608;53.688;10.748;2022-08-18T03:55:03;14.37;;;11.90;;
32094;SDS011;18608;53.688;10.748;2022-08-18T03:57:30;15.63;;;12.07;;
32094;SDS011;18608;53.688;10.748;2022-08-18T03:59:56;20.50;;;11.33;;
32094;SDS011;18608;53.688;10.748;2022-08-18T04:02:22;15.10;;;12.40;;
32094;SDS011;18608;53.688;10.748;2022-08-18T04:04:48;17.07;;;12.10;;
32094;SDS011;18608;53.688;10.748;2022-08-18T04:07:15;12.57;;;11.27;;
32094;SDS011;18608;53.688;10.748;2022-08-18T04:09:41;20.80;;;12.80;;
32094;SDS011;18608;53.688;10.748;2022-08-18T04:12:09;13.70;;;11.80;;
32094;SDS011;18608;53.688;10.748;2022-08-18T04:14:37;18.67;;;12.07;;
32094;SDS011;18608;53.688;10.748;2022-08-18T04:17:04;16.83;;;12.33;;
32094;SDS011;18608;53.688;10.748;2022-08-18T04:19:30;20.00;;;13.23;;
32094;SDS011;18608;53.688;10.748;2022-08-18T04:21:58;21.50;;;13.33;;
32094;SDS011;18608;53.688;10.748;2022-08-18T04:24:25;17.43;;;13.30;;
32094;SDS011;18608;53.688;10.748;2022-08-18T04:26:52;13.63;;;11.70;;
32094;SDS011;18608;53.688;10.748;2022-08-18T04:29:20;17.73;;;13.43;;
32094;SDS011;18608;53.688;10.748;2022-08-18T04:31:46;15.50;;;12.23;;
32094;SDS011;18608;53.688;10.748;2022-08-18T04:34:12;17.53;;;13.40;;
32094;SDS011;18608;53.688;10.748;2022-08-18T04:36:39;19.37;;;13.17;;
32094;SDS011;18608;53.688;10.748;2022-08-18T04:39:06;17.70;;;12.80;;
32094;SDS011;18608;53.688;10.748;2022-08-18T04:41:34;16.83;;;13.77;;
32094;SDS011;18608;53.688;10.748;2022-08-18T04:44:02;14.60;;;13.10;;
32094;SDS011;18608;53.688;10.748;2022-08-18T04:46:29;15.30;;;13.17;;
32094;SDS011;18608;53.688;10.748;2022-08-18T04:49:00;16.07;;;14.07;;
32094;SDS011;18608;53.688;10.748;2022-08-18T04:51:27;15.50;;;13.87;;
32094;SDS011;18608;53.688;10.748;2022-08-18T04:53:54;20.83;;;13.33;;
32094;SDS011;18608;53.688;10.748;2022-08-18T04:56:22;20.87;;;13.00;;
32094;SDS011;18608;53.688;10.748;2022-08-18T05:01:45;18.83;;;14.37;;
32094;SDS011;18608;53.688;10.748;2022-08-18T05:04:12;16.23;;;11.83;;
32094;SDS011;18608;53.688;10.748;2022-08-18T05:06:39;20.70;;;12.00;;
32094;SDS011;18608;53.688;10.748;2022-08-18T05:09:07;14.37;;;12.93;;
32094;SDS011;18608;53.688;10.748;2022-08-18T05:11:35;18.33;;;13.40;;
32094;SDS011;18608;53.688;10.748;2022-08-18T05:14:03;17.83;;;11.87;;
32094;SDS011;18608;53.688;10.748;2022-08-18T05:16:31;17.13;;;12.60;;
32094;SDS011;18608;53.688;10.748;2022-08-18T05:19:00;14.27;;;11.67;;
32094;SDS011;18608;53.688;10.748;2022-08-18T05:21:28;16.87;;;12.17;;
32094;SDS011;18608;53.688;10.748;2022-08-18T05:23:54;13.27;;;11.80;;
32094;SDS011;18608;53.688;10.748;2022-08-18T05:26:20;15.67;;;11.97;;
32094;SDS011;18608;53.688;10.748;2022-08-18T05:28:46;15.50;;;11.57;;
32094;SDS011;18608;53.688;10.748;2022-08-18T05:31:15;15.60;;;10.90;;
32094;SDS011;18608;53.688;10.748;2022-08-18T05:33:43;16.03;;;11.27;;
32094;SDS011;18608;53.688;10.748;2022-08-18T05:39:09;14.67;;;11.33;;
32094;SDS011;18608;53.688;10.748;2022-08-18T05:41:51;11.97;;;10.33;;
32094;SDS011;18608;53.688;10.748;2022-08-18T05:44:19;24.73;;;10.83;;
32094;SDS011;18608;53.688;10.748;2022-08-18T05:46:51;17.10;;;11.13;;
32094;SDS011;18608;53.688;10.748;2022-08-18T05:49:19;15.13;;;12.13;;
32094;SDS011;18608;53.688;10.748;2022-08-18T05:51:47;18.17;;;11.40;;
32094;SDS011;18608;53.688;10.748;2022-08-18T05:54:16;13.17;;;11.77;;
32094;SDS011;18608;53.688;10.748;2022-08-18T05:57:08;14.97;;;11.60;;
32094;SDS011;18608;53.688;10.748;2022-08-18T05:59:41;25.33;;;12.70;;
32094;SDS011;18608;53.688;10.748;2022-08-18T06:02:13;13.03;;;10.70;;
32094;SDS011;18608;53.688;10.748;2022-08-18T06:04:49;17.00;;;11.60;;
32094;SDS011;18608;53.688;10.748;2022-08-18T06:07:33;13.90;;;12.00;;
32094;SDS011;18608;53.688;10.748;2022-08-18T06:10:05;18.57;;;11.30;;
32094;SDS011;18608;53.688;10.748;2022-08-18T06:12:34;21.57;;;11.80;;
32094;SDS011;18608;53.688;10.748;2022-08-18T06:15:24;12.40;;;11.10;;
32094;SDS011;18608;53.688;10.748;2022-08-18T06:29:17;16.60;;;10.20;;
32094;SDS011;18608;53.688;10.748;2022-08-18T06:32:17;14.97;;;10.60;;
32094;SDS011;18608;53.688;10.748;2022-08-18T06:38:14;15.70;;;10.90;;
32094;SDS011;18608;53.688;10.748;2022-08-18T06:43:40;14.00;;;10.23;;
32094;SDS011;18608;53.688;10.748;2022-08-18T06:46:26;16.57;;;10.60;;
32094;SDS011;18608;53.688;10.748;2022-08-18T06:49:20;17.83;;;11.50;;
32094;SDS011;18608;53.688;10.748;2022-08-18T06:51:48;21.77;;;11.60;;
32094;SDS011;18608;53.688;10.748;2022-08-18T06:59:28;14.93;;;10.00;;
32094;SDS011;18608;53.688;10.748;2022-08-18T07:02:00;12.33;;;10.73;;
32094;SDS011;18608;53.688;10.748;2022-08-18T07:04:39;15.70;;;10.50;;
32094;SDS011;18608;53.688;10.748;2022-08-18T07:07:43;22.40;;;11.20;;
32094;SDS011;18608;53.688;10.748;2022-08-18T07:10:32;14.23;;;11.27;;
32094;SDS011;18608;53.688;10.748;2022-08-18T07:15:46;12.70;;;11.07;;
32094;SDS011;18608;53.688;10.748;2022-08-18T07:18:13;12.50;;;11.20;;
32094;SDS011;18608;53.688;10.748;2022-08-18T07:20:45;16.40;;;11.27;;
32094;SDS011;18608;53.688;10.748;2022-08-18T07:26:10;15.63;;;12.20;;
32094;SDS011;18608;53.688;10.748;2022-08-18T07:28:43;15.10;;;11.70;;
32094;SDS011;18608;53.688;10.748;2022-08-18T07:34:07;17.17;;;13.57;;
32094;SDS011;18608;53.688;10.748;2022-08-18T07:37:02;17.47;;;14.43;;
32094;SDS011;18608;53.688;10.748;2022-08-18T07:39:33;25.73;;;14.97;;
32094;SDS011;18608;53.688;10.748;2022-08-18T07:47:19;21.03;;;14.60;;
32094;SDS011;18608;53.688;10.748;2022-08-18T07:49:50;21.53;;;16.00;;
32094;SDS011;18608;53.688;10.748;2022-08-18T07:55:31;17.60;;;13.47;;
32094;SDS011;18608;53.688;10.748;2022-08-18T07:58:10;17.67;;;14.33;;
32094;SDS011;18608;53.688;10.748;2022-08-18T08:00:50;20.43;;;15.57;;
32094;SDS011;18608;53.688;10.748;2022-08-18T08:03:48;18.40;;;14.93;;
32094;SDS011;18608;53.688;10.748;2022-08-18T08:06:28;18.73;;;13.60;;
32094;SDS011;18608;53.688;10.748;2022-08-18T08:09:05;17.20;;;14.70;;
32094;SDS011;18608;53.688;10.748;2022-08-18T08:16:49;20.67;;;15.40;;
32094;SDS011;18608;53.688;10.748;2022-08-18T08:22:19;18.73;;;14.10;;
32094;SDS011;18608;53.688;10.748;2022-08-18T08:25:00;21.53;;;14.30;;
32094;SDS011;18608;53.688;10.748;2022-08-18T08:30:18;17.33;;;14.20;;
32094;SDS011;18608;53.688;10.748;2022-08-18T08:35:20;28.73;;;15.13;;
32094;SDS011;18608;53.688;10.748;2022-08-18T08:37:55;21.23;;;13.97;;
32094;SDS011;18608;53.688;10.748;2022-08-18T08:40:29;22.60;;;13.70;;
32094;SDS011;18608;53.688;10.748;2022-08-18T08:43:03;18.60;;;14.93;;
32094;SDS011;18608;53.688;10.748;2022-08-18T08:45:38;17.03;;;15.23;;
32094;SDS011;18608;53.688;10.748;2022-08-18T08:48:26;17.73;;;13.17;;
32094;SDS011;18608;53.688;10.748;2022-08-18T08:53:23;21.93;;;14.50;;
32094;SDS011;18608;53.688;10.748;2022-08-18T08:55:54;18.40;;;14.53;;
32094;SDS011;18608;53.688;10.748;2022-08-18T08:58:24;20.97;;;14.73;;
32094;SDS011;18608;53.688;10.748;2022-08-18T09:00:59;17.43;;;14.20;;
32094;SDS011;18608;53.688;10.748;2022-08-18T09:21:27;20.43;;;16.27;;
32094;SDS011;18608;53.688;10.748;2022-08-18T09:29:12;25.83;;;15.83;;
32094;SDS011;18608;53.688;10.748;2022-08-18T09:37:45;25.50;;;20.30;;
32094;SDS011;18608;53.688;10.748;2022-08-18T09:40:33;25.07;;;17.73;;
32094;SDS011;18608;53.688;10.748;2022-08-18T09:43:56;30.10;;;22.10;;
32094;SDS011;18608;53.688;10.748;2022-08-18T09:51:50;34.17;;;28.97;;
32094;SDS011;18608;53.688;10.748;2022-08-18T09:54:18;39.93;;;30.43;;
32094;SDS011;18608;53.688;10.748;2022-08-18T09:59:25;52.77;;;38.07;;
32094;SDS011;18608;53.688;10.748;2022-08-18T10:02:03;57.80;;;37.80;;
32094;SDS011;18608;53.688;10.748;2022-08-18T10:04:40;55.77;;;39.27;;
32094;SDS011;18608;53.688;10.748;2022-08-18T10:17:41;71.53;;;48.10;;
32094;SDS011;18608;53.688;10.748;2022-08-18T10:29:02;77.83;;;46.37;;
32094;SDS011;18608;53.688;10.748;2022-08-18T10:31:30;62.67;;;40.20;;
32094;SDS011;18608;53.688;10.748;2022-08-18T10:34:59;79.67;;;46.13;;
32094;SDS011;18608;53.688;10.748;2022-08-18T10:42:38;58.20;;;37.00;;
32094;SDS011;18608;53.688;10.748;2022-08-18T10:50:41;73.23;;;41.63;;
32094;SDS011;18608;53.688;10.748;2022-08-18T11:04:11;45.70;;;33.70;;
32094;SDS011;18608;53.688;10.748;2022-08-18T11:06:49;54.00;;;34.00;;
32094;SDS011;18608;53.688;10.748;2022-08-18T11:09:25;51.87;;;33.20;;
32094;SDS011;18608;53.688;10.748;2022-08-18T11:11:54;70.40;;;34.07;;
32094;SDS011;18608;53.688;10.748;2022-08-18T11:14:36;54.47;;;34.67;;
32094;SDS011;18608;53.688;10.748;2022-08-18T11:20:12;49.40;;;35.17;;
32094;SDS011;18608;53.688;10.748;2022-08-18T11:22:47;64.13;;;37.47;;
32094;SDS011;18608;53.688;10.748;2022-08-18T11:25:24;65.13;;;38.80;;
32094;SDS011;18608;53.688;10.748;2022-08-18T11:27:53;63.50;;;40.43;;
32094;SDS011;18608;53.688;10.748;2022-08-18T11:30:20;63.53;;;41.27;;
32094;SDS011;18608;53.688;10.748;2022-08-18T11:32:48;57.10;;;39.77;;
32094;SDS011;18608;53.688;10.748;2022-08-18T11:35:16;65.93;;;42.20;;
32094;SDS011;18608;53.688;10.748;2022-08-18T11:42:38;54.30;;;36.37;;
32094;SDS011;18608;53.688;10.748;2022-08-18T11:45:11;61.10;;;37.67;;
32094;SDS011;18608;53.688;10.748;2022-08-18T12:03:56;50.23;;;30.03;;
32094;SDS011;18608;53.688;10.748;2022-08-18T12:06:35;47.93;;;29.07;;
32094;SDS011;18608;53.688;10.748;2022-08-18T12:09:05;54.57;;;33.23;;
32094;SDS011;18608;53.688;10.748;2022-08-18T12:12:02;58.33;;;33.43;;
32094;SDS011;18608;53.688;10.748;2022-08-18T12:14:30;52.67;;;30.63;;
32094;SDS011;18608;53.688;10.748;2022-08-18T12:16:58;49.93;;;32.83;;
32094;SDS011;18608;53.688;10.748;2022-08-18T12:19:24;54.70;;;32.83;;
32094;SDS011;18608;53.688;10.748;2022-08-18T12:21:58;55.47;;;33.93;;
32094;SDS011;18608;53.688;10.748;2022-08-18T12:24:26;51.73;;;34.03;;
32094;SDS011;18608;53.688;10.748;2022-08-18T12:26:53;54.73;;;31.93;;
32094;SDS011;18608;53.688;10.748;2022-08-18T12:29:20;52.27;;;32.50;;
32094;SDS011;18608;53.688;10.748;2022-08-18T12:31:47;54.53;;;32.77;;
32094;SDS011;18608;53.688;10.748;2022-08-18T12:34:17;52.10;;;32.70;;
32094;SDS011;18608;53.688;10.748;2022-08-18T12:36:44;48.90;;;31.07;;
32094;SDS011;18608;53.688;10.748;2022-08-18T12:39:10;47.73;;;32.50;;
32094;SDS011;18608;53.688;10.748;2022-08-18T12:41:37;48.03;;;31.57;;
32094;SDS011;18608;53.688;10.748;2022-08-18T12:44:03;53.70;;;34.40;;
32094;SDS011;18608;53.688;10.748;2022-08-18T12:46:29;48.97;;;35.50;;
32094;SDS011;18608;53.688;10.748;2022-08-18T12:48:55;46.73;;;33.10;;
32094;SDS011;18608;53.688;10.748;2022-08-18T12:51:21;46.83;;;29.87;;
32094;SDS011;18608;53.688;10.748;2022-08-18T12:53:47;48.70;;;33.00;;
32094;SDS011;18608;53.688;10.748;2022-08-18T12:56:19;57.27;;;35.50;;
32094;SDS011;18608;53.688;10.748;2022-08-18T12:58:47;48.97;;;35.80;;
32094;SDS011;18608;53.688;10.748;2022-08-18T13:01:13;51.07;;;36.40;;
32094;SDS011;18608;53.688;10.748;2022-08-18T13:03:39;60.57;;;37.27;;
32094;SDS011;18608;53.688;10.748;2022-08-18T13:06:05;48.10;;;34.60;;
32094;SDS011;18608;53.688;10.748;2022-08-18T13:08:31;53.00;;;31.67;;
32094;SDS011;18608;53.688;10.748;2022-08-18T13:10:57;42.97;;;31.03;;
32094;SDS011;18608;53.688;10.748;2022-08-18T13:13:24;38.37;;;29.43;;
32094;SDS011;18608;53.688;10.748;2022-08-18T13:15:50;41.90;;;26.50;;
32094;SDS011;18608;53.688;10.748;2022-08-18T13:18:18;36.97;;;25.93;;
32094;SDS011;18608;53.688;10.748;2022-08-18T13:20:44;33.90;;;24.80;;
32094;SDS011;18608;53.688;10.748;2022-08-18T13:23:10;40.30;;;28.33;;
32094;SDS011;18608;53.688;10.748;2022-08-18T13:25:36;34.63;;;23.50;;
32094;SDS011;18608;53.688;10.748;2022-08-18T13:28:02;31.43;;;23.20;;
32094;SDS011;18608;53.688;10.748;2022-08-18T13:30:28;37.50;;;26.63;;
32094;SDS011;18608;53.688;10.748;2022-08-18T13:32:54;35.07;;;25.10;;
32094;SDS011;18608;53.688;10.748;2022-08-18T13:35:20;30.20;;;21.17;;
32094;SDS011;18608;53.688;10.748;2022-08-18T13:37:46;33.13;;;22.70;;
32094;SDS011;18608;53.688;10.748;2022-08-18T13:40:12;32.30;;;22.40;;
32094;SDS011;18608;53.688;10.748;2022-08-18T13:42:45;40.03;;;23.57;;
32094;SDS011;18608;53.688;10.748;2022-08-18T13:45:13;26.10;;;18.90;;
32094;SDS011;18608;53.688;10.748;2022-08-18T13:47:43;26.20;;;19.50;;
32094;SDS011;18608;53.688;10.748;2022-08-18T13:50:10;24.10;;;19.57;;
32094;SDS011;18608;53.688;10.748;2022-08-18T13:52:36;28.03;;;19.50;;
32094;SDS011;18608;53.688;10.748;2022-08-18T13:55:03;33.63;;;20.90;;
32094;SDS011;18608;53.688;10.748;2022-08-18T13:57:31;30.73;;;21.80;;
32094;SDS011;18608;53.688;10.748;2022-08-18T13:59:57;29.00;;;21.00;;
32094;SDS011;18608;53.688;10.748;2022-08-18T14:02:22;28.33;;;20.83;;
32094;SDS011;18608;53.688;10.748;2022-08-18T14:04:48;28.60;;;21.80;;
32094;SDS011;18608;53.688;10.748;2022-08-18T14:07:15;31.00;;;21.37;;
32094;SDS011;18608;53.688;10.748;2022-08-18T14:09:43;29.17;;;21.17;;
32094;SDS011;18608;53.688;10.748;2022-08-18T14:12:16;22.93;;;20.10;;
32094;SDS011;18608;53.688;10.748;2022-08-18T14:14:44;26.40;;;20.10;;
32094;SDS011;18608;53.688;10.748;2022-08-18T14:17:10;25.17;;;18.93;;
32094;SDS011;18608;53.688;10.748;2022-08-18T14:19:36;33.43;;;22.23;;
32094;SDS011;18608;53.688;10.748;2022-08-18T14:22:20;32.60;;;21.57;;
32094;SDS011;18608;53.688;10.748;2022-08-18T14:25:05;24.73;;;19.40;;
32094;SDS011;18608;53.688;10.748;2022-08-18T14:27:50;30.03;;;21.13;;
32094;SDS011;18608;53.688;10.748;2022-08-18T14:30:16;25.70;;;18.00;;
32094;SDS011;18608;53.688;10.748;2022-08-18T14:32:42;23.13;;;18.07;;
32094;SDS011;18608;53.688;10.748;2022-08-18T14:35:10;20.90;;;16.67;;
32094;SDS011;18608;53.688;10.748;2022-08-18T14:37:37;24.77;;;18.20;;
32094;SDS011;18608;53.688;10.748;2022-08-18T14:40:03;23.70;;;19.27;;
32094;SDS011;18608;53.688;10.748;2022-08-18T14:42:31;23.00;;;18.10;;
32094;SDS011;18608;53.688;10.748;2022-08-18T14:44:57;19.70;;;16.93;;
32094;SDS011;18608;53.688;10.748;2022-08-18T14:47:23;21.17;;;16.70;;
32094;SDS011;18608;53.688;10.748;2022-08-18T14:49:53;22.47;;;16.90;;
32094;SDS011;18608;53.688;10.748;2022-08-18T14:52:21;21.10;;;16.00;;
32094;SDS011;18608;53.688;10.748;2022-08-18T14:54:47;26.40;;;15.50;;
32094;SDS011;18608;53.688;10.748;2022-08-18T14:57:13;20.57;;;15.83;;
32094;SDS011;18608;53.688;10.748;2022-08-18T14:59:40;19.60;;;16.57;;
32094;SDS011;18608;53.688;10.748;2022-08-18T15:02:06;19.97;;;16.40;;
32094;SDS011;18608;53.688;10.748;2022-08-18T15:04:34;17.50;;;14.30;;
32094;SDS011;18608;53.688;10.748;2022-08-18T15:07:00;17.30;;;13.80;;
32094;SDS011;18608;53.688;10.748;2022-08-18T15:09:26;15.40;;;13.10;;
32094;SDS011;18608;53.688;10.748;2022-08-18T15:11:56;14.97;;;12.27;;
32094;SDS011;18608;53.688;10.748;2022-08-18T15:14:26;17.43;;;14.53;;
32094;SDS011;18608;53.688;10.748;2022-08-18T15:16:55;20.60;;;12.97;;
32094;SDS011;18608;53.688;10.748;2022-08-18T15:19:22;16.00;;;13.60;;
32094;SDS011;18608;53.688;10.748;2022-08-18T15:21:48;20.60;;;14.70;;
32094;SDS011;18608;53.688;10.748;2022-08-18T15:24:32;15.83;;;14.13;;
32094;SDS011;18608;53.688;10.748;2022-08-18T15:27:16;19.90;;;13.83;;
32094;SDS011;18608;53.688;10.748;2022-08-18T15:29:42;19.60;;;15.13;;
32094;SDS011;18608;53.688;10.748;2022-08-18T15:32:08;18.50;;;13.07;;
32094;SDS011;18608;53.688;10.748;2022-08-18T15:34:34;15.10;;;12.67;;
32094;SDS011;18608;53.688;10.748;2022-08-18T15:36:59;17.90;;;13.33;;
32094;SDS011;18608;53.688;10.748;2022-08-18T15:39:25;16.07;;;12.87;;
32094;SDS011;18608;53.688;10.748;2022-08-18T15:41:51;19.00;;;13.33;;
32094;SDS011;18608;53.688;10.748;2022-08-18T15:44:19;17.53;;;13.13;;
32094;SDS011;18608;53.688;10.748;2022-08-18T15:46:46;17.73;;;11.50;;
32094;SDS011;18608;53.688;10.748;2022-08-18T15:49:12;12.60;;;11.30;;
32094;SDS011;18608;53.688;10.748;2022-08-18T15:51:39;14.90;;;13.23;;
32094;SDS011;18608;53.688;10.748;2022-08-18T15:54:08;13.73;;;11.83;;
32094;SDS011;18608;53.688;10.748;2022-08-18T15:56:34;14.60;;;11.80;;
32094;SDS011;18608;53.688;10.748;2022-08-18T15:59:02;13.53;;;11.97;;
32094;SDS011;18608;53.688;10.748;2022-08-18T16:01:34;22.80;;;12.13;;
32094;SDS011;18608;53.688;10.748;2022-08-18T16:04:00;15.87;;;12.53;;
32094;SDS011;18608;53.688;10.748;2022-08-18T16:06:28;13.60;;;12.30;;
32094;SDS011;18608;53.688;10.748;2022-08-18T16:08:54;11.97;;;10.53;;
32094;SDS011;18608;53.688;10.748;2022-08-18T16:11:20;14.30;;;11.30;;
32094;SDS011;18608;53.688;10.748;2022-08-18T16:13:48;13.43;;;11.07;;
32094;SDS011;18608;53.688;10.748;2022-08-18T16:16:19;13.23;;;11.90;;
32094;SDS011;18608;53.688;10.748;2022-08-18T16:18:47;13.40;;;12.00;;
32094;SDS011;18608;53.688;10.748;2022-08-18T16:21:17;13.33;;;11.60;;
32094;SDS011;18608;53.688;10.748;2022-08-18T16:23:46;13.97;;;12.53;;
32094;SDS011;18608;53.688;10.748;2022-08-18T16:26:15;14.57;;;12.80;;
32094;SDS011;18608;53.688;10.748;2022-08-18T16:28:42;18.23;;;12.70;;
32094;SDS011;18608;53.688;10.748;2022-08-18T16:31:09;18.80;;;12.80;;
32094;SDS011;18608;53.688;10.748;2022-08-18T16:33:39;22.93;;;13.80;;
32094;SDS011;18608;53.688;10.748;2022-08-18T16:36:06;25.73;;;14.67;;
32094;SDS011;18608;53.688;10.748;2022-08-18T16:38:34;20.97;;;15.57;;
32094;SDS011;18608;53.688;10.748;2022-08-18T16:41:06;20.97;;;16.40;;
32094;SDS011;18608;53.688;10.748;2022-08-18T16:43:33;19.87;;;15.27;;
32094;SDS011;18608;53.688;10.748;2022-08-18T16:46:00;17.10;;;14.07;;
32094;SDS011;18608;53.688;10.748;2022-08-18T16:48:27;17.03;;;14.50;;
32094;SDS011;18608;53.688;10.748;2022-08-18T16:50:54;18.87;;;14.17;;
32094;SDS011;18608;53.688;10.748;2022-08-18T16:53:19;19.80;;;14.70;;
32094;SDS011;18608;53.688;10.748;2022-08-18T16:55:45;16.93;;;14.43;;
32094;SDS011;18608;53.688;10.748;2022-08-18T16:58:11;17.80;;;13.37;;
32094;SDS011;18608;53.688;10.748;2022-08-18T17:00:55;19.00;;;15.33;;
32094;SDS011;18608;53.688;10.748;2022-08-18T17:03:40;30.47;;;15.63;;
32094;SDS011;18608;53.688;10.748;2022-08-18T17:06:24;19.30;;;15.67;;
32094;SDS011;18608;53.688;10.748;2022-08-18T17:08:52;19.33;;;16.00;;
32094;SDS011;18608;53.688;10.748;2022-08-18T17:11:22;21.27;;;16.80;;
32094;SDS011;18608;53.688;10.748;2022-08-18T17:13:51;21.40;;;16.13;;
32094;SDS011;18608;53.688;10.748;2022-08-18T17:16:19;21.97;;;17.93;;